Time;durP1;ratioP1;P1;durP2;ratioP2;P2;SDS_P1;SDS_P2;PMS_P1;PMS_P2;Temp;Humidity;BMP_temperature;BMP_pressure;BME280_temperature;BME280_humidity;BME280_pressure;Samples;Min_cycle;Max_cycle;Signal;HPM_P1;HPM_P2
2022/10/26 03:00:50;;;;;;;41.58;21.35;;;10.00;99.90;;;;;;6267234;22;20034;-75
2022/10/26 03:03:17;;;;;;;32.90;20.65;;;10.00;99.90;;;;;;6310977;22;20347;-75
2022/10/26 03:05:43;;;;;;;36.42;20.58;;;10.00;99.90;;;;;;6337802;22;20011;-76
2022/10/26 03:08:09;;;;;;;39.28;20.70;;;10.00;99.90;;;;;;6311501;22;20022;-78
2022/10/26 03:10:44;;;;;;;40.47;20.38;;;10.00;99.90;;;;;;6311439;22;20463;-74
2022/10/26 03:13:11;;;;;;;34.95;19.55;;;10.00;99.90;;;;;;6311352;22;20007;-75
2022/10/26 03:15:37;;;;;;;36.47;19.52;;;10.00;99.90;;;;;;6311455;22;20060;-76
2022/10/26 03:18:04;;;;;;;30.63;18.70;;;10.00;99.90;;;;;;6311412;22;20010;-75
2022/10/26 03:20:29;;;;;;;32.25;18.58;;;10.00;99.90;;;;;;6311083;22;20428;-77
2022/10/26 03:22:55;;;;;;;27.40;17.77;;;10.00;99.90;;;;;;6285776;22;20011;-79
2022/10/26 03:25:24;;;;;;;29.77;18.25;;;10.00;99.90;;;;;;6311274;22;20064;-77
2022/10/26 03:27:58;;;;;;;35.72;18.50;;;10.00;99.90;;;;;;6311323;22;20144;-75
2022/10/26 03:30:24;;;;;;;29.52;18.50;;;10.00;99.90;;;;;;6311241;22;20021;-75
2022/10/26 03:32:49;;;;;;;34.38;18.20;;;10.10;99.90;;;;;;6339104;22;20332;-76
2022/10/26 03:35:15;;;;;;;33.92;17.50;;;10.10;99.90;;;;;;6311333;22;20025;-76
2022/10/26 03:37:41;;;;;;;31.33;18.08;;;10.00;99.90;;;;;;6311368;22;20015;-76
2022/10/26 03:40:07;;;;;;;34.42;18.13;;;10.10;99.90;;;;;;6338895;22;20007;-78
2022/10/26 03:42:35;;;;;;;32.55;17.33;;;10.10;99.90;;;;;;6310736;22;20037;-77
2022/10/26 03:45:01;;;;;;;34.20;18.00;;;10.10;99.90;;;;;;6311186;22;20015;-77
2022/10/26 03:47:26;;;;;;;33.20;18.02;;;10.00;99.90;;;;;;6311025;22;20015;-77
2022/10/26 03:49:52;;;;;;;30.25;17.25;;;10.10;99.90;;;;;;6311047;22;20041;-78
2022/10/26 03:52:18;;;;;;;29.58;17.20;;;10.10;99.90;;;;;;6285261;22;20018;-77
2022/10/26 03:54:43;;;;;;;39.45;17.70;;;10.10;99.90;;;;;;6311194;22;20023;-77
2022/10/26 03:57:09;;;;;;;33.88;17.58;;;10.10;99.90;;;;;;6311316;22;20011;-74
2022/10/26 03:59:34;;;;;;;29.30;17.40;;;10.10;99.90;;;;;;6311106;22;20022;-79
2022/10/26 04:02:00;;;;;;;28.67;16.05;;;10.00;99.90;;;;;;6311052;22;20068;-77
2022/10/26 04:04:25;;;;;;;30.98;17.27;;;10.00;99.90;;;;;;6310894;22;20022;-79
2022/10/26 04:06:51;;;;;;;28.70;17.60;;;10.00;99.90;;;;;;6311234;22;20026;-75
2022/10/26 04:09:17;;;;;;;29.52;16.88;;;10.00;99.90;;;;;;6311425;22;20015;-76
2022/10/26 04:11:42;;;;;;;33.20;17.27;;;10.10;99.90;;;;;;6311396;22;20390;-78
2022/10/26 04:14:08;;;;;;;33.67;18.55;;;10.10;99.90;;;;;;6311303;22;20015;-73
2022/10/26 04:16:34;;;;;;;31.50;17.38;;;10.10;99.90;;;;;;6311205;22;20006;-78
2022/10/26 04:18:59;;;;;;;32.53;17.02;;;10.10;99.90;;;;;;6312718;22;20003;-78
2022/10/26 04:21:25;;;;;;;28.90;17.48;;;10.10;99.90;;;;;;6311563;22;20064;-76
2022/10/26 04:23:51;;;;;;;27.77;17.77;;;10.10;99.90;;;;;;6285373;22;20021;-76
2022/10/26 04:26:17;;;;;;;26.80;16.27;;;10.20;99.90;;;;;;6339233;22;20076;-76
2022/10/26 04:28:42;;;;;;;30.90;17.63;;;10.20;99.90;;;;;;6311194;22;20436;-78
2022/10/26 04:31:08;;;;;;;31.33;18.00;;;10.20;99.90;;;;;;6311280;22;20011;-79
2022/10/26 04:33:33;;;;;;;27.42;16.83;;;10.20;99.90;;;;;;6339195;22;20018;-80
2022/10/26 04:36:00;;;;;;;30.25;18.02;;;10.30;99.90;;;;;;6311217;22;20432;-79
2022/10/26 04:38:25;;;;;;;28.83;17.08;;;10.30;99.90;;;;;;6311473;22;20017;-79
2022/10/26 04:40:51;;;;;;;32.95;17.27;;;10.30;99.90;;;;;;6338791;22;20038;-74
2022/10/26 04:43:17;;;;;;;29.50;16.92;;;10.30;99.90;;;;;;6311167;22;20386;-75
2022/10/26 04:45:42;;;;;;;27.63;17.15;;;10.30;99.90;;;;;;6338772;22;20475;-77
2022/10/26 04:48:12;;;;;;;32.53;17.50;;;10.30;99.90;;;;;;6339171;22;20045;-78
2022/10/26 04:50:39;;;;;;;31.35;16.58;;;10.40;99.90;;;;;;6285198;22;20007;-79
2022/10/26 04:53:06;;;;;;;29.50;16.95;;;10.30;99.90;;;;;;6311052;22;20015;-77
2022/10/26 04:55:33;;;;;;;30.63;16.63;;;10.40;99.90;;;;;;6312682;22;20033;-77
2022/10/26 04:57:58;;;;;;;30.10;16.95;;;10.30;99.90;;;;;;6340587;22;20427;-77
2022/10/26 05:00:24;;;;;;;30.30;17.15;;;10.30;99.90;;;;;;6311911;22;20011;-77
2022/10/26 05:02:50;;;;;;;27.55;17.30;;;10.30;99.90;;;;;;6339427;22;20007;-76
2022/10/26 05:05:15;;;;;;;30.00;16.85;;;10.30;99.90;;;;;;6311591;22;20079;-79
2022/10/26 05:07:41;;;;;;;26.35;15.60;;;10.40;99.90;;;;;;6311652;22;20018;-76
2022/10/26 05:10:07;;;;;;;26.88;15.85;;;10.40;99.90;;;;;;6311690;22;20015;-78
2022/10/26 05:12:33;;;;;;;28.20;16.27;;;10.40;99.90;;;;;;6311317;22;20046;-77
2022/10/26 05:14:59;;;;;;;29.58;17.20;;;10.40;99.90;;;;;;6339401;22;20011;-79
2022/10/26 05:17:25;;;;;;;29.15;16.30;;;10.50;99.90;;;;;;6311744;22;20509;-77
2022/10/26 05:19:54;;;;;;;24.90;15.10;;;10.50;99.90;;;;;;6311566;22;20462;-79
2022/10/26 05:22:21;;;;;;;27.23;15.90;;;10.50;99.90;;;;;;6311359;22;20007;-78
2022/10/26 05:24:46;;;;;;;26.98;16.40;;;10.50;99.90;;;;;;6311673;22;20022;-78
2022/10/26 05:27:12;;;;;;;26.83;15.55;;;10.60;99.90;;;;;;6339166;22;20331;-79
2022/10/26 05:29:38;;;;;;;29.98;15.73;;;10.60;99.90;;;;;;6311529;22;20015;-79
2022/10/26 05:32:04;;;;;;;25.52;15.32;;;10.60;99.90;;;;;;6311694;22;20068;-81
2022/10/26 05:34:29;;;;;;;28.20;15.90;;;10.60;99.90;;;;;;6311950;22;20014;-75
2022/10/26 05:36:55;;;;;;;34.63;17.00;;;10.60;99.90;;;;;;6311605;22;20011;-77
2022/10/26 05:39:21;;;;;;;25.75;15.48;;;10.60;99.90;;;;;;6338447;22;20038;-75
2022/10/26 05:41:46;;;;;;;24.85;15.25;;;10.60;99.90;;;;;;6310833;22;20019;-77
2022/10/26 05:44:12;;;;;;;29.60;15.73;;;10.60;99.90;;;;;;6311467;22;20076;-77
2022/10/26 05:46:38;;;;;;;28.48;15.18;;;10.60;99.90;;;;;;6310300;22;20352;-76
2022/10/26 05:49:03;;;;;;;30.23;15.65;;;10.60;99.90;;;;;;6311511;22;20382;-78
2022/10/26 05:51:31;;;;;;;23.38;14.13;;;10.60;99.90;;;;;;6338892;22;20011;-77
2022/10/26 05:53:56;;;;;;;26.85;15.68;;;10.60;99.90;;;;;;6339420;22;20019;-78
2022/10/26 05:56:36;;;;;;;23.90;14.57;;;10.70;99.90;;;;;;6311564;22;20053;-78
2022/10/26 05:59:08;;;;;;;26.40;15.82;;;10.70;99.90;;;;;;6339600;22;20018;-76
2022/10/26 06:02:16;;;;;;;23.02;14.75;;;10.70;99.90;;;;;;6311408;22;20011;-77
2022/10/26 06:04:46;;;;;;;24.45;14.68;;;10.70;99.90;;;;;;6228980;22;20021;-77
2022/10/26 06:07:16;;;;;;;24.83;14.48;;;10.70;99.90;;;;;;6311046;22;20015;-76
2022/10/26 06:09:43;;;;;;;23.52;14.77;;;10.80;99.90;;;;;;6339203;22;20101;-79
2022/10/26 06:12:09;;;;;;;27.70;15.15;;;10.70;99.90;;;;;;6311111;22;20067;-73
2022/10/26 06:14:35;;;;;;;22.58;13.80;;;10.80;99.90;;;;;;6310826;22;20018;-74
2022/10/26 06:17:26;;;;;;;20.90;14.02;;;10.80;99.90;;;;;;6339892;22;20079;-75
2022/10/26 06:20:00;;;;;;;26.65;13.88;;;10.80;99.90;;;;;;6339907;22;20320;-76
2022/10/26 06:22:42;;;;;;;23.90;14.50;;;10.80;99.90;;;;;;6339719;22;20111;-75
2022/10/26 06:25:13;;;;;;;20.40;13.43;;;10.90;99.90;;;;;;6312220;22;20064;-74
2022/10/26 06:27:51;;;;;;;24.33;13.50;;;10.90;99.90;;;;;;6312024;22;20015;-75
2022/10/26 06:30:19;;;;;;;24.98;13.63;;;10.90;99.90;;;;;;6339324;22;20362;-75
2022/10/26 06:32:45;;;;;;;20.73;13.75;;;10.90;99.90;;;;;;6311770;22;20428;-75
2022/10/26 06:35:11;;;;;;;23.85;12.98;;;10.90;99.90;;;;;;6311629;22;20151;-74
2022/10/26 06:37:38;;;;;;;23.70;13.27;;;10.90;99.90;;;;;;6311971;22;20447;-75
2022/10/26 06:40:05;;;;;;;21.65;12.55;;;10.90;99.90;;;;;;6311964;22;20014;-75
2022/10/26 06:42:31;;;;;;;22.85;12.57;;;10.90;99.90;;;;;;6311778;22;20011;-75
2022/10/26 06:44:57;;;;;;;24.58;11.98;;;10.90;99.90;;;;;;6311908;22;20343;-76
2022/10/26 06:47:39;;;;;;;23.33;12.88;;;10.90;99.90;;;;;;6311993;22;20014;-75
2022/10/26 06:50:18;;;;;;;24.67;12.30;;;10.90;99.90;;;;;;6311980;22;20014;-75
2022/10/26 06:52:52;;;;;;;22.35;11.60;;;11.00;99.90;;;;;;6311910;22;20094;-75
2022/10/26 06:55:18;;;;;;;21.50;12.35;;;11.00;99.90;;;;;;6311833;22;20090;-77
2022/10/26 06:57:45;;;;;;;21.88;12.70;;;11.00;99.90;;;;;;6311850;22;20471;-75
2022/10/26 07:00:16;;;;;;;23.67;12.70;;;11.00;99.90;;;;;;6286268;22;20041;-75
2022/10/26 07:02:41;;;;;;;24.00;13.02;;;11.00;99.90;;;;;;6311652;22;20010;-75
2022/10/26 07:05:11;;;;;;;20.65;12.05;;;11.00;99.90;;;;;;6311808;22;20463;-74
2022/10/26 07:07:41;;;;;;;23.92;11.35;;;11.10;99.90;;;;;;6285883;22;20069;-74
2022/10/26 07:10:07;;;;;;;20.13;11.80;;;11.10;99.90;;;;;;6339310;22;20015;-74
2022/10/26 07:12:33;;;;;;;21.35;11.88;;;11.10;99.90;;;;;;6311457;22;20072;-75
2022/10/26 07:14:59;;;;;;;17.98;10.73;;;11.20;99.90;;;;;;6339006;22;20011;-75
2022/10/26 07:17:27;;;;;;;23.25;11.85;;;11.20;99.90;;;;;;6311352;22;20498;-74
2022/10/26 07:19:53;;;;;;;21.05;10.52;;;11.20;99.90;;;;;;6339192;22;20030;-76
2022/10/26 07:22:19;;;;;;;21.05;10.98;;;11.30;99.90;;;;;;6311263;22;20018;-74
2022/10/26 07:24:48;;;;;;;20.13;10.88;;;11.30;99.90;;;;;;6339181;22;20011;-74
2022/10/26 07:27:14;;;;;;;18.05;10.25;;;11.30;99.90;;;;;;6339645;22;20335;-75
2022/10/26 07:29:40;;;;;;;15.50;10.23;;;11.30;99.90;;;;;;6285632;22;20053;-73
2022/10/26 07:32:06;;;;;;;26.13;11.05;;;11.40;99.90;;;;;;6339373;22;20019;-73
2022/10/26 07:34:31;;;;;;;19.85;10.02;;;11.40;99.90;;;;;;6310007;22;20011;-75
2022/10/26 07:36:59;;;;;;;17.23;10.25;;;11.40;99.90;;;;;;6309151;22;20026;-72
2022/10/26 07:39:24;;;;;;;18.88;10.48;;;11.50;99.90;;;;;;6338832;22;20011;-73
2022/10/26 07:41:50;;;;;;;23.23;10.35;;;11.50;99.90;;;;;;6339716;22;20009;-73
2022/10/26 07:44:16;;;;;;;17.00;9.48;;;11.50;99.90;;;;;;6338256;22;20015;-73
2022/10/26 07:46:41;;;;;;;16.02;8.95;;;11.50;99.90;;;;;;6338911;22;20105;-73
2022/10/26 07:49:07;;;;;;;21.38;10.32;;;11.60;99.90;;;;;;6337428;22;20355;-73
2022/10/26 07:51:33;;;;;;;20.33;9.52;;;11.60;99.90;;;;;;6309222;22;20011;-73
2022/10/26 07:53:58;;;;;;;16.90;8.95;;;11.60;99.90;;;;;;6338882;22;20010;-74
2022/10/26 07:56:24;;;;;;;18.50;9.98;;;11.60;99.90;;;;;;6308752;22;20007;-73
2022/10/26 07:58:52;;;;;;;17.67;9.40;;;11.60;99.90;;;;;;6339866;22;20371;-74
2022/10/26 08:01:18;;;;;;;18.95;9.23;;;11.60;99.90;;;;;;6310786;22;20447;-74
2022/10/26 08:03:44;;;;;;;14.38;9.27;;;11.60;99.90;;;;;;6309038;22;20379;-74
2022/10/26 08:06:10;;;;;;;16.27;9.75;;;11.60;99.90;;;;;;6337156;22;20007;-74
2022/10/26 08:08:36;;;;;;;15.98;8.50;;;11.60;99.90;;;;;;6309343;22;20014;-74
2022/10/26 08:11:02;;;;;;;18.13;9.10;;;11.60;99.90;;;;;;6310912;22;20011;-75
2022/10/26 08:13:28;;;;;;;19.20;8.68;;;11.60;99.90;;;;;;6339110;22;20076;-75
2022/10/26 08:16:01;;;;;;;20.10;9.20;;;11.60;99.90;;;;;;6310567;22;20053;-75
2022/10/26 08:18:27;;;;;;;16.40;9.27;;;11.60;99.90;;;;;;6310957;22;20042;-75
2022/10/26 08:20:53;;;;;;;19.75;8.55;;;11.70;99.90;;;;;;6311051;22;20007;-75
2022/10/26 08:23:19;;;;;;;17.85;9.02;;;11.80;99.90;;;;;;6339215;22;20007;-75
2022/10/26 08:25:45;;;;;;;18.27;8.50;;;11.80;99.90;;;;;;6311219;22;20413;-74
2022/10/26 08:28:11;;;;;;;12.43;8.43;;;11.90;99.90;;;;;;6311095;22;20015;-74
2022/10/26 08:30:36;;;;;;;17.23;9.00;;;12.00;99.90;;;;;;6312949;22;20015;-75
2022/10/26 08:33:04;;;;;;;14.52;8.18;;;12.10;99.90;;;;;;6340957;22;20028;-73
2022/10/26 08:35:31;;;;;;;14.95;7.35;;;12.20;99.90;;;;;;6340561;22;20015;-73
2022/10/26 08:37:57;;;;;;;14.82;7.80;;;12.30;99.90;;;;;;6340978;22;20003;-74
2022/10/26 08:40:26;;;;;;;19.40;8.23;;;12.40;99.90;;;;;;6313000;22;20046;-74
2022/10/26 08:43:00;;;;;;;15.35;7.32;;;12.50;99.90;;;;;;6312894;22;20022;-73
2022/10/26 08:45:34;;;;;;;11.93;6.88;;;12.60;99.90;;;;;;6313007;22;20026;-74
2022/10/26 08:48:04;;;;;;;14.02;7.25;;;12.80;99.90;;;;;;6313056;22;20014;-74
2022/10/26 08:50:58;;;;;;;13.85;7.63;;;13.00;99.90;;;;;;6312733;22;20340;-75
2022/10/26 08:54:01;;;;;;;12.20;6.43;;;13.20;99.90;;;;;;6312869;22;20392;-74
2022/10/26 08:56:34;;;;;;;11.55;6.65;;;13.50;99.90;;;;;;6306642;22;20019;-74
2022/10/26 08:59:33;;;;;;;13.48;6.20;;;14.00;99.90;;;;;;6340835;22;20007;-74
2022/10/26 09:02:01;;;;;;;13.15;6.28;;;14.00;99.90;;;;;;6312281;22;20011;-75
2022/10/26 09:04:28;;;;;;;12.55;5.95;;;13.90;99.90;;;;;;6312633;22;20014;-74
2022/10/26 09:07:16;;;;;;;10.25;5.20;;;13.90;99.90;;;;;;6340048;22;20053;-75
2022/10/26 09:09:46;;;;;;;11.48;5.53;;;14.10;99.90;;;;;;6312391;22;20011;-75
2022/10/26 09:12:39;;;;;;;11.30;4.78;;;14.20;99.90;;;;;;6312386;22;20015;-75
2022/10/26 09:15:20;;;;;;;12.85;4.30;;;14.40;99.90;;;;;;6340239;22;20011;-74
2022/10/26 09:18:04;;;;;;;10.63;5.00;;;14.50;99.90;;;;;;6340038;22;20380;-75
2022/10/26 09:20:35;;;;;;;9.32;4.70;;;14.50;99.90;;;;;;6339828;22;20060;-74
2022/10/26 09:23:22;;;;;;;9.32;4.95;;;14.50;99.90;;;;;;6312334;22;20007;-75
2022/10/26 09:26:00;;;;;;;10.32;4.80;;;14.40;99.90;;;;;;6312413;22;20432;-75
2022/10/26 09:28:30;;;;;;;7.55;4.82;;;14.40;99.90;;;;;;6312451;22;20089;-75
2022/10/26 09:30:59;;;;;;;12.35;4.90;;;14.40;99.90;;;;;;6312180;22;20021;-73
2022/10/26 09:33:25;;;;;;;9.38;5.03;;;14.40;99.90;;;;;;6339995;22;20003;-74
2022/10/26 09:36:05;;;;;;;8.57;4.60;;;14.40;99.90;;;;;;6312179;22;20396;-75
2022/10/26 09:38:40;;;;;;;13.90;4.82;;;14.50;99.90;;;;;;6312245;22;20013;-74
2022/10/26 09:41:37;;;;;;;13.75;4.60;;;14.50;99.90;;;;;;6311522;22;20011;-75
2022/10/26 09:44:24;;;;;;;10.70;5.25;;;14.60;99.90;;;;;;6339750;22;20011;-74
2022/10/26 09:47:19;;;;;;;12.65;5.10;;;14.70;99.90;;;;;;6341948;22;20053;-75
2022/10/26 09:49:51;;;;;;;9.35;4.25;;;14.80;99.90;;;;;;6314408;22;20018;-74
2022/10/26 09:52:16;;;;;;;9.05;4.22;;;15.00;99.90;;;;;;6340420;22;20367;-74
2022/10/26 09:54:42;;;;;;;8.65;4.38;;;15.20;99.90;;;;;;6312163;22;20015;-74
2022/10/26 09:57:12;;;;;;;8.60;3.72;;;15.50;99.90;;;;;;6312335;22;20014;-77
2022/10/26 09:59:39;;;;;;;11.30;4.22;;;15.70;99.90;;;;;;6312355;22;20011;-79
2022/10/26 10:02:35;;;;;;;7.32;3.65;;;15.90;99.90;;;;;;6312106;22;20363;-78
2022/10/26 10:05:01;;;;;;;9.40;3.53;;;16.00;99.90;;;;;;6312697;22;20050;-77
2022/10/26 10:07:26;;;;;;;7.90;3.10;;;15.90;99.90;;;;;;6286679;22;20706;-76
2022/10/26 10:10:18;;;;;;;8.77;3.92;;;15.90;99.90;;;;;;6340508;22;20029;-78
2022/10/26 10:12:46;;;;;;;8.30;3.72;;;15.90;99.90;;;;;;6312668;22;20064;-78
2022/10/26 10:15:23;;;;;;;9.13;3.45;;;15.90;99.90;;;;;;6312206;22;20010;-77
2022/10/26 10:17:56;;;;;;;7.00;4.00;;;15.90;99.90;;;;;;6311841;22;20475;-77
2022/10/26 10:20:30;;;;;;;9.45;3.50;;;16.00;99.90;;;;;;6340051;22;20440;-75
2022/10/26 10:23:02;;;;;;;8.38;3.72;;;16.00;99.90;;;;;;6340074;22;20485;-78
2022/10/26 10:25:34;;;;;;;11.20;4.47;;;16.20;99.90;;;;;;6312723;22;20018;-77
2022/10/26 10:28:01;;;;;;;6.35;3.30;;;16.30;99.90;;;;;;6339812;22;20003;-78
2022/10/26 10:30:32;;;;;;;8.82;3.72;;;16.40;99.90;;;;;;6312305;22;20076;-78
2022/10/26 10:33:10;;;;;;;8.77;3.65;;;16.50;99.90;;;;;;6312588;22;20049;-78
2022/10/26 10:35:39;;;;;;;11.05;3.70;;;16.60;99.90;;;;;;6340333;22;20028;-77
2022/10/26 10:38:05;;;;;;;11.90;4.07;;;16.70;99.90;;;;;;6313162;22;20038;-75
2022/10/26 10:40:31;;;;;;;10.38;3.65;;;16.80;99.90;;;;;;6312235;22;20590;-77
2022/10/26 10:43:13;;;;;;;10.65;3.92;;;16.80;99.90;;;;;;6340051;22;20011;-82
2022/10/26 10:45:39;;;;;;;10.30;3.50;;;16.80;99.90;;;;;;6341535;22;20139;-76
2022/10/26 10:48:11;;;;;;;10.13;3.70;;;16.80;99.90;;;;;;6340010;22;20011;-76
2022/10/26 10:50:38;;;;;;;10.90;3.42;;;16.70;99.90;;;;;;6311842;22;20049;-77
2022/10/26 10:53:28;;;;;;;9.10;3.45;;;16.70;99.90;;;;;;6312438;22;20003;-77
2022/10/26 10:56:18;;;;;;;7.53;3.50;;;16.70;99.90;;;;;;6312061;22;20060;-76
2022/10/26 10:59:02;;;;;;;14.45;4.15;;;16.70;99.90;;;;;;6340276;22;20376;-76
2022/10/26 11:01:37;;;;;;;8.45;3.28;;;16.80;99.90;;;;;;6311788;22;20021;-73
2022/10/26 11:04:32;;;;;;;9.97;3.20;;;16.90;99.90;;;;;;6312070;22;20011;-77
2022/10/26 11:07:02;;;;;;;9.23;3.08;;;17.00;99.90;;;;;;6311867;22;20022;-77
2022/10/26 11:09:31;;;;;;;10.23;3.50;;;17.10;99.90;;;;;;6313096;22;20048;-82
2022/10/26 11:12:17;;;;;;;17.17;3.85;;;17.30;99.90;;;;;;6313000;22;20014;-80
2022/10/26 11:15:07;;;;;;;9.32;3.53;;;17.40;99.90;;;;;;6312685;22;20344;-80
2022/10/26 11:17:41;;;;;;;10.73;2.92;;;17.50;99.90;;;;;;6311891;22;20034;-80
2022/10/26 11:20:27;;;;;;;12.82;3.40;;;17.60;99.90;;;;;;6312515;22;20448;-78
2022/10/26 11:23:15;;;;;;;11.98;2.97;;;17.70;99.90;;;;;;6287049;22;20082;-79
2022/10/26 11:25:55;;;;;;;8.02;2.60;;;17.80;99.90;;;;;;6309761;22;20427;-79
2022/10/26 11:28:51;;;;;;;5.45;2.50;;;17.90;99.90;;;;;;6311938;22;20015;-87
2022/10/26 11:31:26;;;;;;;10.13;3.25;;;18.00;99.90;;;;;;6287172;22;20349;-82
2022/10/26 11:34:16;;;;;;;8.10;2.70;;;18.10;99.90;;;;;;6312621;22;20010;-78
2022/10/26 11:36:48;;;;;;;9.15;3.03;;;18.10;99.90;;;;;;6286972;22;20019;-82
2022/10/26 11:39:32;;;;;;;9.48;2.80;;;18.20;99.90;;;;;;6340557;22;20440;-79
2022/10/26 11:42:04;;;;;;;8.80;3.08;;;18.30;99.90;;;;;;6340508;22;20014;-80
2022/10/26 11:44:47;;;;;;;7.10;2.65;;;18.40;99.90;;;;;;6312622;22;20014;-80
2022/10/26 11:47:21;;;;;;;5.50;2.88;;;18.50;99.90;;;;;;6312811;22;20014;-79
2022/10/26 11:50:12;;;;;;;7.82;3.22;;;18.60;99.90;;;;;;6340369;22;20397;-78
2022/10/26 11:52:43;;;;;;;8.07;2.92;;;18.80;99.90;;;;;;6287280;22;20007;-80
2022/10/26 11:55:10;;;;;;;8.43;3.20;;;18.80;99.90;;;;;;6312270;22;20015;-81
2022/10/26 11:57:36;;;;;;;10.32;3.30;;;18.80;99.90;;;;;;6340514;22;20042;-82
2022/10/26 12:00:06;;;;;;;12.38;3.88;;;18.70;99.90;;;;;;6312281;22;20048;-78
2022/10/26 12:02:39;;;;;;;9.13;3.25;;;18.60;99.90;;;;;;6312500;22;20011;-80
2022/10/26 12:05:07;;;;;;;8.35;3.05;;;18.60;99.90;;;;;;6312045;22;20026;-80
2022/10/26 12:07:36;;;;;;;15.57;5.30;;;18.60;99.90;;;;;;6312283;22;20021;-78
2022/10/26 12:10:05;;;;;;;10.52;3.30;;;18.70;99.90;;;;;;6311909;22;20010;-82
2022/10/26 12:12:47;;;;;;;12.25;4.30;;;18.70;99.90;;;;;;6312314;22;20011;-82
2022/10/26 12:15:22;;;;;;;7.35;2.92;;;18.80;99.90;;;;;;6340748;22;20397;-82
2022/10/26 12:18:36;;;;;;;8.45;3.53;;;18.50;99.90;;;;;;6312984;22;20011;-79
2022/10/26 12:21:05;;;;;;;10.63;3.65;;;18.40;99.90;;;;;;6312880;22;20011;-81
2022/10/26 12:23:35;;;;;;;9.50;4.20;;;18.40;99.90;;;;;;6312504;22;20006;-82
2022/10/26 12:26:22;;;;;;;9.93;4.15;;;18.40;99.90;;;;;;6312519;22;20010;-82
2022/10/26 12:29:00;;;;;;;17.95;6.35;;;18.30;99.90;;;;;;6311885;22;20325;-80
2022/10/26 12:31:35;;;;;;;12.57;5.22;;;18.30;99.90;;;;;;6311742;22;20042;-78
2022/10/26 12:34:02;;;;;;;10.60;5.38;;;18.10;99.90;;;;;;6311768;22;20018;-79
2022/10/26 12:36:46;;;;;;;12.35;5.32;;;18.10;99.90;;;;;;6340416;22;20011;-80
2022/10/26 12:39:39;;;;;;;9.98;4.70;;;17.90;99.90;;;;;;6285828;22;20017;-78
2022/10/26 12:42:05;;;;;;;10.32;5.20;;;17.90;99.90;;;;;;6339089;22;20007;-83
2022/10/26 12:44:33;;;;;;;10.73;4.20;;;17.80;99.90;;;;;;6312039;22;20022;-79
2022/10/26 12:46:59;;;;;;;8.00;4.30;;;17.80;99.90;;;;;;6312219;22;20011;-80
2022/10/26 12:49:57;;;;;;;10.68;5.03;;;17.70;99.90;;;;;;6311775;22;20085;-79
2022/10/26 12:52:53;;;;;;;10.43;4.55;;;17.60;99.90;;;;;;6288462;22;20088;-82
2022/10/26 12:55:43;;;;;;;14.85;5.13;;;17.50;99.90;;;;;;6339725;22;20015;-81
2022/10/26 12:58:27;;;;;;;13.27;5.00;;;17.50;99.90;;;;;;6312303;22;20018;-81
2022/10/26 13:00:59;;;;;;;7.78;4.43;;;17.50;99.90;;;;;;6311682;22;20440;-80
2022/10/26 13:04:05;;;;;;;10.73;4.78;;;17.50;99.90;;;;;;6312335;22;20426;-81
2022/10/26 13:06:49;;;;;;;10.15;4.55;;;17.50;99.90;;;;;;6312240;22;20014;-79
2022/10/26 13:09:26;;;;;;;12.65;4.20;;;17.40;99.90;;;;;;6312165;22;20037;-81
2022/10/26 13:11:55;;;;;;;12.27;4.38;;;17.50;99.90;;;;;;6339601;22;20503;-83
2022/10/26 13:14:26;;;;;;;12.90;4.85;;;17.50;99.90;;;;;;6311977;22;20015;-82
2022/10/26 13:16:52;;;;;;;11.65;4.57;;;17.50;99.90;;;;;;6342114;22;20011;-80
2022/10/26 13:19:40;;;;;;;20.15;8.38;;;17.40;99.90;;;;;;6313923;22;20048;-85
2022/10/26 13:22:12;;;;;;;9.32;5.28;;;17.50;99.90;;;;;;6315050;22;20010;-78
2022/10/26 13:24:48;;;;;;;14.40;5.63;;;17.40;99.90;;;;;;6313799;22;20064;-81
2022/10/26 13:27:16;;;;;;;11.70;5.07;;;17.50;99.90;;;;;;6314381;22;20021;-79
2022/10/26 13:30:18;;;;;;;10.48;4.40;;;17.60;99.90;;;;;;6313733;22;20028;-83
2022/10/26 13:32:53;;;;;;;8.05;4.80;;;17.90;99.90;;;;;;6288376;22;20011;-82
2022/10/26 13:35:21;;;;;;;9.02;4.97;;;18.00;99.90;;;;;;6287831;22;20010;-80
2022/10/26 13:37:50;;;;;;;10.18;5.63;;;18.10;99.90;;;;;;6313346;22;20436;-82
2022/10/26 13:40:27;;;;;;;11.73;6.20;;;18.30;99.90;;;;;;6341160;22;20041;-80
2022/10/26 13:43:01;;;;;;;10.75;7.10;;;18.30;99.90;;;;;;6313569;22;20010;-78
2022/10/26 13:45:35;;;;;;;9.40;7.03;;;18.40;99.90;;;;;;6341676;22;20107;-82
2022/10/26 13:48:23;;;;;;;11.25;7.43;;;18.30;99.90;;;;;;6313777;22;20018;-83
2022/10/26 13:50:52;;;;;;;15.07;8.07;;;18.30;99.90;;;;;;6313191;22;20022;-81
2022/10/26 13:53:23;;;;;;;13.05;7.80;;;18.20;99.90;;;;;;6314531;22;20021;-84
2022/10/26 13:56:14;;;;;;;15.52;9.82;;;18.20;99.90;;;;;;6341357;22;20022;-80
2022/10/26 13:58:58;;;;;;;11.13;8.27;;;18.10;99.90;;;;;;6287717;22;20451;-79
2022/10/26 14:01:25;;;;;;;12.95;8.55;;;18.10;99.90;;;;;;6340493;22;20011;-83
2022/10/26 14:03:51;;;;;;;16.98;9.73;;;18.20;99.90;;;;;;6312888;22;20018;-81
2022/10/26 14:06:37;;;;;;;13.63;8.77;;;18.20;99.90;;;;;;6314308;22;20444;-82
2022/10/26 14:09:10;;;;;;;14.07;8.60;;;18.30;99.90;;;;;;6313681;22;20015;-81
2022/10/26 14:11:52;;;;;;;14.02;7.90;;;18.30;99.90;;;;;;6313150;22;20015;-81
2022/10/26 14:14:29;;;;;;;12.65;8.43;;;18.30;99.90;;;;;;6313061;22;20006;-80
2022/10/26 14:16:56;;;;;;;13.48;9.57;;;18.30;99.90;;;;;;6287755;22;20362;-80
2022/10/26 14:19:35;;;;;;;16.23;9.25;;;18.20;99.90;;;;;;6312969;22;20011;-81
2022/10/26 14:22:01;;;;;;;12.38;8.63;;;18.30;99.90;;;;;;6286977;22;20455;-82
2022/10/26 14:24:29;;;;;;;10.52;8.02;;;18.30;99.90;;;;;;6313686;22;20011;-84
2022/10/26 14:26:55;;;;;;;13.70;8.48;;;18.20;99.90;;;;;;6313103;22;20011;-82
2022/10/26 14:29:23;;;;;;;11.07;7.88;;;18.10;99.90;;;;;;6313371;22;20018;-79
2022/10/26 14:31:50;;;;;;;13.43;8.00;;;18.00;99.90;;;;;;6313277;22;20029;-83
2022/10/26 14:34:17;;;;;;;12.57;7.43;;;17.90;99.90;;;;;;6312799;22;20018;-81
2022/10/26 14:37:02;;;;;;;15.23;6.93;;;17.80;99.90;;;;;;6313330;22;20011;-79
2022/10/26 14:39:42;;;;;;;9.63;6.53;;;17.70;99.90;;;;;;6313203;22;20063;-85
2022/10/26 14:42:27;;;;;;;12.60;6.15;;;17.70;99.90;;;;;;6312860;22;20079;-79
2022/10/26 14:44:52;;;;;;;10.23;6.05;;;17.60;99.90;;;;;;6313198;22;20345;-78
2022/10/26 14:47:32;;;;;;;10.32;5.63;;;17.50;99.90;;;;;;6341050;22;20011;-77
2022/10/26 14:50:00;;;;;;;7.82;5.60;;;17.50;99.90;;;;;;6312625;22;20034;-82
2022/10/26 14:52:29;;;;;;;11.70;5.57;;;17.40;99.90;;;;;;6312702;22;20010;-82
2022/10/26 14:55:10;;;;;;;8.35;5.47;;;17.40;99.90;;;;;;6312973;22;20010;-81
2022/10/26 14:57:38;;;;;;;12.43;5.03;;;17.40;99.90;;;;;;6312751;22;20011;-80
2022/10/26 15:00:24;;;;;;;9.93;5.20;;;17.30;99.90;;;;;;6340641;22;20003;-82
2022/10/26 15:02:53;;;;;;;8.10;5.18;;;17.30;99.90;;;;;;6340179;22;20509;-81
2022/10/26 15:05:32;;;;;;;9.18;5.28;;;17.30;99.90;;;;;;6312600;22;20014;-79
2022/10/26 15:07:58;;;;;;;8.55;5.30;;;17.20;99.90;;;;;;6312612;22;20436;-81
2022/10/26 15:10:36;;;;;;;16.17;5.20;;;17.20;99.90;;;;;;6312563;22;20018;-80
2022/10/26 15:13:23;;;;;;;8.90;5.35;;;17.20;99.90;;;;;;6312364;22;20087;-80
2022/10/26 15:15:52;;;;;;;12.63;5.05;;;17.10;99.90;;;;;;6312471;22;20395;-82
2022/10/26 15:18:23;;;;;;;8.80;5.10;;;17.10;99.90;;;;;;6312497;22;20017;-80
2022/10/26 15:20:50;;;;;;;8.77;4.93;;;17.10;99.90;;;;;;6312743;22;20078;-80
2022/10/26 15:23:17;;;;;;;8.68;5.38;;;17.00;99.90;;;;;;6340754;22;20011;-82
2022/10/26 15:25:59;;;;;;;10.32;4.90;;;17.10;99.90;;;;;;6287523;22;20098;-78
2022/10/26 15:28:39;;;;;;;9.13;5.10;;;17.00;99.90;;;;;;6344029;22;20025;-79
2022/10/26 15:31:11;;;;;;;10.82;5.18;;;17.00;99.90;;;;;;6312544;22;20448;-84
2022/10/26 15:33:41;;;;;;;7.32;5.38;;;17.00;99.90;;;;;;6340508;22;20068;-81
2022/10/26 15:36:07;;;;;;;9.02;5.50;;;17.00;99.90;;;;;;6312024;22;20082;-81
2022/10/26 15:38:36;;;;;;;9.35;5.18;;;17.00;99.90;;;;;;6311719;22;20045;-81
2022/10/26 15:41:22;;;;;;;11.30;4.97;;;17.00;99.90;;;;;;6286667;22;20006;-81
2022/10/26 15:43:49;;;;;;;7.10;4.68;;;17.00;99.90;;;;;;6311867;22;20059;-83
2022/10/26 15:46:15;;;;;;;10.45;4.65;;;16.90;99.90;;;;;;6286445;22;20007;-81
2022/10/26 15:48:42;;;;;;;11.10;4.90;;;16.90;99.90;;;;;;6312600;22;20042;-82
2022/10/26 15:51:12;;;;;;;12.85;5.00;;;16.90;99.90;;;;;;6312225;22;20062;-84
2022/10/26 15:53:38;;;;;;;12.63;4.53;;;16.90;99.90;;;;;;6340446;22;20080;-80
2022/10/26 15:56:12;;;;;;;8.40;4.55;;;16.90;99.90;;;;;;6312179;22;20015;-78
2022/10/26 15:58:37;;;;;;;6.05;4.40;;;16.90;99.90;;;;;;6340179;22;20030;-78
2022/10/26 16:01:03;;;;;;;9.05;4.70;;;16.90;99.90;;;;;;6311681;22;20011;-81